Toulon, IL (61483)

10:12 AM CST on February 14, 2016 (GMT -0600)
Stark County News | | Change Station
CLOSE
Current Station
Personal Weather Station
Location: Toulon, IL
Elevation: 735 ft
Nearby Weather Stations
Active Advisory: Winter Weather Advisory

Elev 735 ft 41.09 °N, 89.86 °W | Updated 14 minutes ago

Snow
Snow
16.0 °F
Feels Like 3 °F
N
10.9
Wind Variable Wind from ESE

Today
High -- | Low -- °F
--% Chance of Precip.
Yesterday
High -- | Low -- °F
Precip. -- in
Pressure 30.21 in
Visibility 0.5 miles
Clouds Mostly Cloudy 700 ft
Overcast 1200 ft
Windchill 3 °F
Dew Point 16 °F
Humidity 99%
Rainfall 0.00 in
Snow Depth Not available.
6:55 AM 5:31 PM
Waxing Crescent, 43% visible
METAR KC75 141555Z AUTO 13011KT 1/2SM SN BKN007 OVC012 M09/M11 A3021 RMK AO2 T10861110
Pressure 30.21 in
Visibility 0.5 miles
Clouds Mostly Cloudy 700 ft
Overcast 1200 ft
Windchill 3 °F
Dew Point 16 °F
Humidity 99%
Rainfall 0.00 in
Snow Depth Not available.
6:55 AM 5:31 PM
Waxing Crescent, 43% visible
METAR KC75 141555Z AUTO 13011KT 1/2SM SN BKN007 OVC012 M09/M11 A3021 RMK AO2 T10861110

10-Day Weather Forecast

Almanac

Astronomy

Feb. 14, 2016 Rise Set
Actual Time
Civil Twilight
Nautical Twilight
Astronomical Twilight
Moon
Length of Visible Light
Length of Day
Tomorrow will be .
, % of the Moon is Illuminated

Today's Extremes

State Highs State Lows

Community

WunderPhotos

Upload Photos

1,892,828 photos uploaded!

WunderBlog® & News

Nearby

Air Quality

  Air Quality AQ Index Pollutant
Not available.

Snow Depth

Station Depth Elevation

Earthquake Activity

City Distance Mag. Time & Date
Minimum magnitude displayed is 2.5.

Coastal Water Temperatures

Place Temperature

Stations

Nearby Weather Stations

Station Location Temp. Windchill Dew Point Humidity Wind Precip. Elev Updated Type
                   

Watches & Warnings

Winter Weather Advisory
Issued: 8:58 AM CST Feb. 14, 2016 – National Weather Service

... Winter Weather Advisory remains in effect until 6 PM CST this
evening...

* timing... another band of light to moderate snow will continue
moving eastward across central and southeast Illinois today.
The heaviest snow will occur from late morning through mid-
afternoon... before the snow tapers off from west to east late in
the day.

* Snow accumulations... 2 to 3 inches of snow will fall across most
of the area... with higher amounts of 3 to 5 inches focused
along and northwest of the Illinois River.

* Wind... southeast winds of 10 to 20 mph are expected... with gusts
of 20 to 25 mph today.

* Main impact... snow-covered roads will create hazardous travel
conditions. Brisk southeasterly winds will cause some blowing
and drifting snow as well.

Precautionary/preparedness actions...

A Winter Weather Advisory for snow means that periods of snow
will cause primarily travel difficulties. Be prepared for snow
covered roads and limited visibilities... and use caution while
driving.



07